Anadarko, OK

7:20 PM CDT on October 01, 2014 (GMT -0500)
Peck's country | Change Station
CLOSE
Current Station
Personal Weather Station
Location: Anadarko, OK
Elevation: 1255 ft
Nearby Weather Stations

Elev 1255 ft 35.10 °N, 98.32 °W | Updated 40 seconds ago

Clear
Clear
87.5 °F
Feels Like 89 °F
N
3.0
Wind Variable Wind from SE
Gusts 6.0 mph

Today
High -- | Low -- °F
--% Chance of Precip.
Yesterday
High -- | Low -- °F
Precip. -- in
7:27 AM 7:16 PM
First Quarter, 52% visible
Pressure 29.69 in
Visibility 10.0 miles
Clouds Few 13000 ft
Heat Index 89 °F
Dew Point 64 °F
Humidity 46%
Rainfall 0.00 in
Snow Depth Not available.
UV 0 out of 12
Pollen 9.60 out of 12
Air Quality Not available.
Flu Activity Not available.
METAR KFSI 302358Z AUTO 16013G18KT 10SM FEW130 30/13 A2971 RMK AO2 SLP052 T02990128 10326 20299 57010

More Conditions Fewer Conditions

Pressure 29.69 in
Visibility 10.0 miles
Clouds Few 13000 ft
Heat Index 89 °F
Dew Point 64 °F
Humidity 46%
Rainfall 0.00 in
Snow Depth Not available.
UV 0 out of 12
Pollen 9.60 out of 12
Air Quality Not available.
Flu Activity Not available.
METAR KFSI 302358Z AUTO 16013G18KT 10SM FEW130 30/13 A2971 RMK AO2 SLP052 T02990128 10326 20299 57010

More Conditions Fewer Conditions

10-Day Weather Forecast

Almanac

Astronomy

Oct. 01, 2014 Rise Set
Actual Time 7:27 AM CDT 7:16 PM CDT
Civil Twilight 7:02 AM CDT 7:42 PM CDT
Nautical Twilight 6:33 AM CDT 8:11 PM CDT
Astronomical Twilight 6:03 AM CDT 8:40 PM CDT
Moon 2:20 PM CDT (10/1) No Moon Set
Length of Visible Light 12h 39m
Length of Day
11h 49m
Tomorrow will be 2m 11s shorter.
First Quarter, 52% of the Moon is Illuminated
Today
First Quarter
Oct 8
Full
Oct 15
Last Quarter
Oct 23
New
Oct 30
First Quarter

Today's Extremes

State Highs State Lows

Community

WunderPhotos

Upload Photos

1,758,097 photos uploaded!

WunderBlogs® & News

Nearby

Snow Depth

Station Depth Elevation
No new snow has been reported.

Earthquake Activity

City Distance Mag. Time & Date
Guthrie, Oklahoma 71 miles 3.0 5:15 PM CDT
2014-10-01
Perry, Oklahoma 109 miles 2.8 4:17 PM CDT
2014-10-01
Medford, Oklahoma 117 miles 3.6 1:18 PM CDT
2014-10-01
Medford, Oklahoma 124 miles 2.5 10:49 PM CDT
2014-09-30
Minimum magnitude displayed is 2.5.

Coastal Water Temperatures

Place Temperature
No Stations Reporting

Nearby Weather Stations